KCWI

Clinton Municipal Airport

Clinton, Iowa, USA
METAR KCWI 191456Z AUTO 16004KT 10SM CLR 24/20 A3000 RMK AO2 SLP175 T02390200 51005
Observed Flight Rules
Aug-19 @ 14:56 UTC (42 minutes ago) Visual Flight Rules
Wind Visibility Clouds
160° at 4 knots 10 miles
  • Clear skies
Temperatures Readings
Current 24°C / 75°F
Dewpoint 20°C / 68°F
Humidity 78%
Altimeter 30" Hg
Pressure 1017.5 hPa
Elevation 216
METAR KCWI 191456Z AUTO 16004KT 10SM CLR 24/20 A3000 RMK AO2 SLP175 T02390200 51005
Observed Flight Rules
Aug-19 @ 14:56 UTC
(42 minutes ago)
VFR
Wind Visibility
160° at 4 knots 10 miles
Clouds
  • Clear skies
Temperature Dewpoint
24°C / 75°F 20°C / 68°F
Humidity Altimeter Pressure
78% 30" Hg 1017.5 hPa